createdAt,value
2019-05-12T00:01:18.675Z,6.6
2019-05-12T00:02:17.904Z,6.2
2019-05-12T00:03:18.845Z,7.2
2019-05-12T00:04:18.844Z,7
2019-05-12T00:05:18.408Z,6.6
2019-05-12T00:06:17.632Z,3.6
2019-05-12T00:10:17.806Z,6.1
2019-05-12T00:11:17.925Z,5
2019-05-12T00:12:18.381Z,6.3
2019-05-12T00:13:19.065Z,8.5
2019-05-12T00:14:17.926Z,9.9
2019-05-12T00:15:19.089Z,6.9
2019-05-12T00:16:18.923Z,5.9
2019-05-12T00:17:18.749Z,6.5
2019-05-12T00:18:18.249Z,8.4
2019-05-12T00:19:18.309Z,5.1
2019-05-12T00:20:18.611Z,6.2
2019-05-12T00:21:18.545Z,8.2
2019-05-12T00:22:18.680Z,8.2
2019-05-12T00:23:24.634Z,7.2
2019-05-12T00:24:19.876Z,9.2
2019-05-12T00:25:18.981Z,5.2
2019-05-12T00:26:19.095Z,6.5
2019-05-12T00:29:19.460Z,7.1
2019-05-12T00:30:19.542Z,5.4
2019-05-12T00:31:19.640Z,5
2019-05-12T00:32:19.784Z,10.4
2019-05-12T00:33:19.891Z,5.3
2019-05-12T00:40:20.580Z,9.8
2019-05-12T00:41:21.813Z,7.6
2019-05-12T00:42:20.793Z,8.8
2019-05-12T00:43:20.926Z,6.2
2019-05-12T00:44:21.053Z,6.7
2019-05-12T00:45:21.160Z,8.3
2019-05-12T00:46:21.294Z,9.6
2019-05-12T00:50:21.806Z,8.7
2019-05-12T02:11:29.252Z,8.7
2019-05-12T02:12:29.364Z,9
2019-05-12T02:13:29.492Z,7.2
2019-05-12T02:14:29.592Z,8.2
2019-05-12T02:15:29.700Z,7.2
2019-05-12T02:16:29.846Z,10.7
2019-05-12T02:17:29.843Z,6.7
2019-05-12T02:18:29.954Z,8.1
2019-05-12T02:19:30.060Z,8.6
2019-05-12T02:20:30.173Z,7.6
2019-05-12T02:21:30.348Z,7.1
2019-05-12T02:22:30.282Z,7.7
2019-05-12T02:23:30.409Z,10.5
2019-05-12T02:24:30.729Z,10
2019-05-12T02:25:30.619Z,8.8
2019-05-12T02:26:30.749Z,10
2019-05-12T02:27:30.875Z,11.8
2019-05-12T02:28:30.984Z,8
2019-05-12T02:29:31.092Z,7.8
2019-05-12T02:30:31.192Z,8
2019-05-12T02:31:31.322Z,10.4
2019-05-12T04:01:39.293Z,9.3
2019-05-12T04:02:39.343Z,9.6
2019-05-12T04:03:39.412Z,10.1
2019-05-12T04:04:39.515Z,9.2
2019-05-12T04:05:39.625Z,7.2
2019-05-12T04:06:39.709Z,10.4
2019-05-12T04:07:39.822Z,7
2019-05-12T04:08:39.905Z,7.8
2019-05-12T04:09:40.042Z,11.7
2019-05-12T04:10:40.103Z,9.7
2019-05-12T04:11:40.180Z,8
2019-05-12T04:12:40.262Z,7.2
2019-05-12T04:13:40.444Z,9.5
2019-05-12T04:14:40.412Z,9.3
2019-05-12T04:15:40.475Z,9.7
2019-05-12T04:16:40.603Z,7.1
2019-05-12T04:17:40.685Z,5.9
2019-05-12T04:18:40.778Z,10.6
2019-05-12T04:19:40.895Z,9.7
2019-05-12T04:20:41.035Z,8.4
2019-05-12T04:21:44.182Z,7.6
2019-05-12T04:23:44.245Z,9.9
2019-05-12T06:02:49.373Z,8.1
2019-05-12T06:03:49.426Z,7.1
2019-05-12T06:04:49.849Z,7.4
2019-05-12T06:05:50.535Z,7.9
2019-05-12T06:06:53.634Z,5.9
2019-05-12T06:07:53.064Z,5.8
2019-05-12T06:08:51.022Z,9.9
2019-05-12T06:09:49.995Z,5.8
2019-05-12T06:10:50.157Z,6.5
2019-05-12T06:11:50.191Z,4.9
2019-05-12T06:12:50.864Z,7.9
2019-05-12T06:13:50.368Z,6.3
2019-05-12T06:14:55.080Z,4.9
2019-05-12T06:16:50.649Z,6.8
2019-05-12T06:17:50.663Z,7.9
2019-05-12T06:18:50.711Z,4.9
2019-05-12T06:19:50.715Z,6.9
2019-05-12T06:20:50.731Z,6.1
2019-05-12T06:21:50.716Z,5.8
2019-05-12T06:22:54.277Z,6.6
2019-05-12T06:24:54.717Z,5.4
2019-05-12T07:31:56.573Z,4.7
2019-05-12T07:32:59.909Z,4.7
2019-05-12T07:33:57.721Z,7
2019-05-12T07:34:56.706Z,5
2019-05-12T07:36:01.145Z,6.4
2019-05-12T07:36:57.733Z,3.6
2019-05-12T07:37:56.726Z,5
2019-05-12T07:39:03.835Z,5.1
2019-05-12T07:39:57.867Z,4.9
2019-05-12T07:41:00.597Z,5.1
2019-05-12T07:49:57.534Z,4.6
2019-05-12T07:51:00.490Z,5.1
2019-05-12T08:10:58.585Z,4.2
2019-05-12T08:21:59.461Z,3.7
2019-05-12T08:23:04.496Z,5.3
2019-05-12T08:24:00.637Z,4.6
2019-05-12T08:24:59.662Z,3.2
2019-05-12T09:57:04.355Z,4.5
2019-05-12T09:58:04.234Z,1.7
2019-05-12T09:59:17.071Z,2.3
2019-05-12T12:02:09.627Z,1.9
2019-05-12T12:03:16.992Z,2.3
2019-05-12T13:04:13.212Z,2.2
2019-05-12T13:05:13.665Z,2
2019-05-12T13:06:13.452Z,1
2019-05-12T13:07:13.813Z,1.2
2019-05-12T13:08:12.581Z,1.3
2019-05-12T13:09:18.021Z,1.5
2019-05-12T13:10:14.194Z,1.4
2019-05-12T13:11:14.675Z,7
2019-05-12T13:12:15.277Z,2.7
2019-05-12T13:13:14.168Z,1.3
2019-05-12T13:14:13.443Z,1.8
2019-05-12T13:15:14.429Z,1.9
2019-05-12T13:16:13.913Z,1.6
2019-05-12T13:17:14.125Z,1.5
2019-05-12T13:18:15.765Z,1.5
2019-05-12T13:19:16.995Z,1.6
2019-05-12T13:20:13.965Z,1.9
2019-05-12T13:21:13.800Z,1.7
2019-05-12T13:22:14.836Z,1.5
2019-05-12T13:47:14.618Z,2.8
2019-05-12T13:48:19.716Z,0.7
2019-05-12T13:49:15.740Z,2.8
2019-05-12T13:50:21.390Z,1.4
2019-05-12T13:51:15.857Z,1.2
2019-05-12T13:52:14.902Z,1.1
2019-05-12T13:53:14.878Z,1.4
2019-05-12T13:54:15.087Z,2.4
2019-05-12T13:55:15.113Z,1.4
2019-05-12T13:56:19.173Z,1.7
2019-05-12T13:57:16.099Z,1.4
2019-05-12T13:58:15.112Z,1.8
2019-05-12T13:59:20.479Z,2.8
2019-05-12T14:00:16.088Z,1.9
2019-05-12T14:01:19.214Z,1.9
2019-05-12T14:02:21.925Z,2.1
2019-05-12T14:03:16.556Z,1.1
2019-05-12T14:04:15.597Z,1.5
2019-05-12T14:05:15.601Z,2.6
2019-05-12T14:06:15.735Z,2.4
2019-05-12T14:07:20.015Z,2
2019-05-12T14:08:16.936Z,2.2
2019-05-12T14:09:15.995Z,1.6
2019-05-12T14:10:16.008Z,1.5
2019-05-12T14:11:18.785Z,1.3
2019-05-12T14:12:17.028Z,1
2019-05-12T14:13:16.099Z,1.1
2019-05-12T14:14:16.131Z,1.1
2019-05-12T14:15:16.165Z,1.9
2019-05-12T14:16:16.176Z,1.6
2019-05-12T14:17:16.216Z,1.4
2019-05-12T14:18:20.388Z,1.4
2019-05-12T14:19:17.299Z,1.2
2019-05-12T14:20:20.058Z,1
2019-05-12T14:21:17.313Z,1
2019-05-12T14:22:21.067Z,1.5
2019-05-12T14:23:17.478Z,0.8
2019-05-12T14:24:16.495Z,1.7
2019-05-12T14:25:20.865Z,2.6
2019-05-12T14:26:17.537Z,1.3
2019-05-12T14:27:18.984Z,2.3
2019-05-12T14:28:17.550Z,1.7
2019-05-12T14:29:20.363Z,2
2019-05-12T14:30:17.569Z,1.6
2019-05-12T14:31:26.247Z,1.4
2019-05-12T14:32:19.152Z,1
2019-05-12T14:33:18.416Z,1.9
2019-05-12T14:34:20.703Z,2.9
2019-05-12T14:35:17.863Z,1.7
2019-05-12T14:36:21.746Z,2.2
2019-05-12T14:37:17.806Z,1.2
2019-05-12T14:38:19.221Z,1
2019-05-12T14:39:18.009Z,0.9
2019-05-12T14:40:21.162Z,1.5
2019-05-12T14:41:18.161Z,1.7
2019-05-12T14:42:17.219Z,1
2019-05-12T14:43:21.246Z,1
2019-05-12T14:44:18.276Z,1.6
2019-05-12T14:45:19.284Z,1.5
2019-05-12T14:46:18.402Z,2.3
2019-05-12T14:47:19.093Z,1.8
2019-05-12T14:48:18.568Z,1.1
2019-05-12T14:49:20.161Z,2.5
2019-05-12T14:50:18.782Z,2.7
2019-05-12T14:51:17.785Z,1.6
2019-05-12T14:52:17.826Z,1.1
2019-05-12T14:53:17.852Z,1.4
2019-05-12T14:54:18.902Z,1.3
2019-05-12T14:55:17.895Z,2.3
2019-05-12T14:56:17.881Z,2
2019-05-12T14:57:17.888Z,1.5
2019-05-12T14:58:20.444Z,1.9
2019-05-12T14:59:19.046Z,2
2019-05-12T15:00:21.157Z,2.8
2019-05-12T15:01:19.172Z,1.5
2019-05-12T15:02:19.329Z,1.5
2019-05-12T15:03:19.299Z,1.7
2019-05-12T15:04:19.229Z,1.4
2019-05-12T15:05:19.493Z,2.1
2019-05-12T15:06:19.364Z,2
2019-05-12T15:07:19.599Z,2.8
2019-05-12T15:08:21.026Z,1.9
2019-05-12T15:10:18.875Z,1
2019-05-12T15:11:18.884Z,2
2019-05-12T15:12:18.899Z,2.5
2019-05-12T15:13:18.914Z,3.5
2019-05-12T15:14:18.960Z,1.8
2019-05-12T15:15:20.670Z,2.4
2019-05-12T15:17:22.312Z,1.3
2019-05-12T18:07:27.086Z,1.4
2019-05-12T18:08:32.424Z,2.1
2019-05-12T18:09:30.521Z,2.8
2019-05-12T18:10:32.470Z,1.7
2019-05-12T18:11:28.186Z,2.1
2019-05-12T18:12:35.992Z,2.2
2019-05-12T18:13:28.385Z,2.6
2019-05-12T18:14:27.971Z,2.6
2019-05-12T18:15:33.100Z,2.5
2019-05-12T18:16:28.461Z,3.7
2019-05-12T18:17:27.645Z,3.9
2019-05-12T18:18:35.588Z,3.1
2019-05-12T18:19:28.836Z,3.4
2019-05-12T18:20:31.056Z,2.5
2019-05-12T18:21:31.078Z,2.7
2019-05-12T18:22:28.920Z,2.8
2019-05-12T18:23:30.254Z,2.9
2019-05-12T18:24:29.014Z,2.2
2019-05-12T18:25:32.273Z,2.7
2019-05-12T18:27:28.251Z,2.7
2019-05-12T18:28:29.507Z,2.6
2019-05-12T18:30:28.539Z,3.9
2019-05-12T18:31:28.481Z,3.3
2019-05-12T18:32:28.569Z,3.2
2019-05-12T18:33:33.717Z,3
2019-05-12T18:35:28.878Z,1.8
2019-05-12T18:36:29.003Z,3.8
2019-05-12T18:37:29.087Z,2.6
2019-05-12T18:38:31.813Z,1.6
2019-05-12T19:06:31.191Z,5.4
2019-05-12T19:07:39.535Z,2.9
2019-05-12T19:08:32.333Z,3.7
2019-05-12T19:09:33.461Z,4.7
2019-05-12T19:10:33.374Z,3.1
2019-05-12T19:12:33.035Z,3.2
2019-05-12T19:14:36.700Z,4.1
2019-05-12T19:16:31.977Z,4.1
2019-05-12T19:38:34.541Z,5.2
2019-05-12T19:39:34.046Z,4.8
2019-05-12T19:58:34.926Z,4.6
2019-05-12T19:59:36.095Z,3.6
2019-05-12T20:00:35.056Z,4.4
2019-05-12T20:01:35.198Z,5.1
2019-05-12T20:35:39.113Z,4.2
2019-05-12T20:36:39.388Z,6.8
2019-05-12T20:37:44.017Z,6.6
2019-05-12T20:38:40.656Z,4.6
2019-05-12T20:39:39.748Z,4.2
2019-05-12T20:40:39.872Z,4.1
2019-05-12T20:42:42.100Z,3.4
2019-05-12T20:44:39.181Z,3.1
2019-05-12T20:45:40.576Z,4.8
2019-05-12T20:46:40.388Z,7.1
2019-05-12T20:47:44.689Z,4.4
2019-05-12T20:48:40.618Z,6.3
2019-05-12T20:49:42.779Z,4.6
2019-05-12T20:51:40.019Z,5.1
2019-05-12T20:52:46.053Z,5.3
2019-05-12T21:16:44.837Z,7.1
2019-05-12T21:17:46.615Z,4.2
2019-05-12T21:18:49.801Z,4.3
2019-05-12T21:20:46.277Z,5.9
2019-05-12T21:22:43.509Z,4.8
2019-05-12T21:23:45.457Z,6.7
2019-05-12T21:28:48.005Z,4.5
2019-05-12T21:29:44.587Z,4.9
2019-05-12T21:30:47.991Z,4.6
2019-05-12T21:31:44.834Z,4.2
2019-05-12T21:32:46.975Z,4.9
2019-05-12T21:53:50.427Z,6.8
2019-05-12T21:54:47.375Z,5.5
2019-05-12T21:55:46.532Z,7.6
2019-05-12T21:56:49.237Z,8
2019-05-12T22:04:47.347Z,5.6
2019-05-12T22:05:51.889Z,7.1
2019-05-12T22:06:51.173Z,6
2019-05-12T22:07:48.641Z,5.9
2019-05-12T22:08:52.927Z,7.8
2019-05-12T22:09:48.860Z,3.9
2019-05-12T22:10:47.971Z,5
2019-05-12T22:11:50.770Z,9.2
2019-05-12T22:12:49.194Z,5.9
2019-05-12T22:13:55.722Z,5.8
2019-05-12T22:22:49.329Z,3.9
2019-05-12T22:23:51.092Z,5.8
2019-05-12T22:24:50.539Z,8.3
2019-05-12T22:25:55.446Z,6.9
2019-05-12T22:26:50.738Z,5.2
2019-05-12T22:27:49.854Z,5.5
2019-05-12T22:28:50.939Z,6.5
2019-05-12T22:30:50.212Z,9
2019-05-12T22:31:50.282Z,8.4
2019-05-12T22:33:53.379Z,6.3
2019-05-12T22:34:51.593Z,4.9
2019-05-12T22:36:02.631Z,7.1
2019-05-12T22:36:55.148Z,7.2
2019-05-12T22:38:51.834Z,6.7
2019-05-12T22:40:55.681Z,7.6
2019-05-12T22:41:52.197Z,5.4
2019-05-12T22:42:56.806Z,8.9
2019-05-12T22:43:53.810Z,4.7
2019-05-12T22:45:01.203Z,6.4
2019-05-12T22:45:54.679Z,6.8
2019-05-12T22:46:54.034Z,7
2019-05-12T22:48:53.531Z,6.3
2019-05-12T22:50:54.928Z,8.4
2019-05-12T22:51:54.476Z,6.4
2019-05-12T22:52:53.360Z,6.2
2019-05-12T22:53:53.886Z,5
2019-05-12T22:54:53.828Z,4.8
2019-05-12T22:55:53.403Z,5.9
2019-05-12T22:56:55.108Z,7.2
2019-05-12T22:58:59.940Z,6.2
2019-05-12T22:59:53.940Z,4.5
2019-05-12T23:01:00.631Z,8.6
2019-05-12T23:01:54.319Z,7.4
2019-05-12T23:02:53.648Z,5.2
2019-05-12T23:03:55.917Z,6.3
2019-05-12T23:04:55.077Z,6.1
2019-05-12T23:05:59.522Z,6.5
2019-05-12T23:06:54.633Z,5.7
2019-05-12T23:07:54.398Z,5.8
2019-05-12T23:08:54.309Z,6.9
2019-05-12T23:09:53.991Z,6.3
2019-05-12T23:10:56.040Z,6.6
2019-05-12T23:11:55.176Z,7.4
2019-05-12T23:12:56.728Z,7.8
2019-05-12T23:13:55.381Z,6.4
2019-05-12T23:15:02.767Z,5.4
2019-05-12T23:15:55.586Z,5.3
2019-05-12T23:16:54.679Z,8.1
2019-05-12T23:19:55.758Z,6.1
2019-05-12T23:20:55.076Z,6.1
2019-05-12T23:21:58.679Z,6.2
2019-05-12T23:22:56.257Z,6.9
2019-05-12T23:23:56.989Z,7.1
2019-05-12T23:24:56.481Z,4.8
2019-05-12T23:26:00.296Z,6.4
2019-05-12T23:26:56.638Z,6.2
2019-05-12T23:28:00.224Z,6.6
2019-05-12T23:29:56.011Z,5.7
2019-05-12T23:30:56.082Z,8.7
2019-05-12T23:32:00.460Z,5.6
2019-05-12T23:32:57.272Z,5.5
2019-05-12T23:33:56.397Z,7
2019-05-12T23:34:58.490Z,5.7
2019-05-12T23:35:57.579Z,7.2
2019-05-12T23:36:59.930Z,6.1
2019-05-12T23:39:57.007Z,6.4
2019-05-12T23:40:57.139Z,7.6
2019-05-12T23:41:57.250Z,6.4
2019-05-12T23:42:57.456Z,7.9
2019-05-12T23:43:57.397Z,4.7
2019-05-12T23:44:57.556Z,6.1
2019-05-12T23:45:57.680Z,5.8
2019-05-12T23:46:57.825Z,5.5
2019-05-12T23:50:58.354Z,6.2
2019-05-12T23:51:58.474Z,5.6
2019-05-12T23:52:58.579Z,8.7
2019-05-12T23:53:58.678Z,5.3
2019-05-12T23:54:58.791Z,6.1
2019-05-12T23:55:58.968Z,5.7
2019-05-12T23:56:58.910Z,9.4
